Quilpie, Australia
Current Conditions -  °F | °C
As of 6:00 AM on Sunday 21 Dec 2014 (Local Time) from YBCV Reporting Station
Clear Clear  
Wind Chill: 75°   Ceiling: Unl
Heat Index: 75°   Visibility: 6mi
Dew Point: 55°   Wind: 9mph
Humidity: 50%   Direction: 20°NNE
Pressure: 29.88"   Gusts: NA
Location:  26.61°S, 144.27°E
Report Text: YBCV 202000Z AUTO 02008KT 9999 // NCD 24/13 Q1012
Loading
Personal Weather Stations






























Interactive Weather Map New forecast layout! Learn more

10-Day Weather Forecast

Advertisements
Track Severe Weather on mobile